Time;durP1;ratioP1;P1;durP2;ratioP2;P2;SDS_P1;SDS_P2;PMS_P1;PMS_P2;Temp;Humidity;BMP_temperature;BMP_pressure;BME280_temperature;BME280_humidity;BME280_pressure;Samples;Min_cycle;Max_cycle;Signal;HPM_P1;HPM_P2
2020/12/16 00:01:27;;;;;;;7.25;4.47;;;7.70;99.90;;;;;;4151883;28;20026;-84
2020/12/16 00:03:27;;;;;;;6.43;3.65;;;7.70;99.90;;;;;;4130901;28;20641;-84
2020/12/16 00:05:29;;;;;;;5.55;3.63;;;7.80;99.90;;;;;;4155969;28;20022;-84
2020/12/16 00:07:30;;;;;;;3.55;2.92;;;7.70;99.90;;;;;;4161948;28;20060;-84
2020/12/16 00:09:31;;;;;;;5.43;3.97;;;7.70;99.90;;;;;;4151287;28;20030;-84
2020/12/16 00:11:34;;;;;;;4.50;3.50;;;7.70;99.90;;;;;;4137648;28;20085;-84
2020/12/16 00:13:34;;;;;;;5.50;3.53;;;7.70;99.90;;;;;;4152360;28;20046;-84
2020/12/16 00:15:35;;;;;;;4.32;3.33;;;7.60;99.90;;;;;;4123866;28;20031;-84
2020/12/16 00:17:36;;;;;;;4.38;3.30;;;7.60;99.90;;;;;;4128553;28;20069;-84
2020/12/16 00:19:45;;;;;;;5.10;3.80;;;7.60;99.90;;;;;;4139598;28;20064;-84
2020/12/16 00:21:46;;;;;;;6.15;4.38;;;7.60;99.90;;;;;;4162018;28;20538;-84
2020/12/16 00:23:46;;;;;;;6.85;4.45;;;7.50;99.90;;;;;;4132895;28;20084;-84
2020/12/16 00:25:47;;;;;;;5.22;3.63;;;7.50;99.90;;;;;;4141173;28;20383;-84
2020/12/16 00:27:48;;;;;;;6.25;3.78;;;7.50;99.90;;;;;;4160728;28;20025;-84
2020/12/16 00:29:48;;;;;;;5.93;4.30;;;7.50;99.90;;;;;;4162363;28;20033;-84
2020/12/16 00:31:49;;;;;;;6.20;3.80;;;7.40;99.90;;;;;;4161378;28;20030;-84
2020/12/16 00:33:50;;;;;;;7.50;3.72;;;7.40;99.90;;;;;;4143594;28;20038;-84
2020/12/16 00:35:51;;;;;;;6.10;4.10;;;7.30;99.90;;;;;;4125691;28;20030;-84
2020/12/16 00:37:51;;;;;;;5.22;3.72;;;7.30;99.90;;;;;;4150095;28;20037;-85
2020/12/16 00:39:52;;;;;;;5.60;3.50;;;7.30;99.90;;;;;;4147698;28;20037;-85
2020/12/16 00:41:52;;;;;;;8.02;4.50;;;7.30;99.90;;;;;;4145817;28;20053;-85
2020/12/16 00:43:53;;;;;;;5.95;4.20;;;7.30;99.90;;;;;;4148398;28;20057;-85
2020/12/16 00:45:53;;;;;;;5.22;3.75;;;7.30;99.90;;;;;;4162068;28;20029;-84
2020/12/16 00:48:00;;;;;;;6.18;4.05;;;7.30;99.90;;;;;;4144406;28;20443;-84
2020/12/16 00:50:01;;;;;;;6.40;4.50;;;7.30;99.90;;;;;;4145939;28;20061;-85
2020/12/16 00:52:02;;;;;;;8.82;5.60;;;7.20;99.90;;;;;;4150260;28;20544;-85
2020/12/16 00:54:02;;;;;;;8.73;5.28;;;7.20;99.90;;;;;;4149756;28;20034;-85
2020/12/16 00:56:10;;;;;;;7.85;4.93;;;7.20;99.90;;;;;;4158063;28;20034;-84
2020/12/16 00:58:11;;;;;;;9.68;5.25;;;7.30;99.90;;;;;;4131799;28;20525;-84
2020/12/16 01:00:13;;;;;;;7.60;4.88;;;7.20;99.90;;;;;;4139479;28;20085;-84
2020/12/16 01:02:15;;;;;;;6.82;4.10;;;7.20;99.90;;;;;;4130391;28;20126;-84
2020/12/16 01:04:15;;;;;;;8.30;4.45;;;7.20;99.90;;;;;;4150509;28;20469;-84
2020/12/16 01:06:16;;;;;;;7.30;4.85;;;7.10;99.90;;;;;;4156769;28;20041;-84
2020/12/16 01:08:16;;;;;;;8.40;5.13;;;7.10;99.90;;;;;;4143580;28;20542;-84
2020/12/16 01:10:18;;;;;;;6.40;4.30;;;7.10;99.90;;;;;;4155425;28;20399;-85
2020/12/16 01:12:19;;;;;;;5.53;4.00;;;7.10;99.90;;;;;;4137154;28;20528;-85
2020/12/16 01:14:19;;;;;;;4.25;3.00;;;7.00;99.90;;;;;;4123508;28;20043;-84
2020/12/16 01:16:20;;;;;;;9.10;4.28;;;7.00;99.90;;;;;;4140645;28;20134;-84
2020/12/16 01:18:20;;;;;;;6.22;4.57;;;7.00;99.90;;;;;;4131976;28;20200;-84
2020/12/16 01:20:21;;;;;;;8.25;5.15;;;7.00;99.90;;;;;;4147197;28;20034;-84
2020/12/16 01:22:23;;;;;;;8.77;5.95;;;7.10;99.90;;;;;;4115854;28;20767;-84
2020/12/16 01:24:26;;;;;;;10.23;6.18;;;7.00;99.90;;;;;;4143526;28;20065;-84
2020/12/16 01:26:27;;;;;;;9.88;6.00;;;7.10;99.90;;;;;;4147736;28;20048;-84
2020/12/16 01:28:27;;;;;;;10.60;6.10;;;7.00;99.90;;;;;;4157111;28;20034;-84
2020/12/16 01:30:34;;;;;;;8.70;6.15;;;7.00;99.90;;;;;;4148322;28;20042;-84
2020/12/16 01:32:38;;;;;;;9.52;6.38;;;7.00;99.90;;;;;;4137861;28;20169;-84
2020/12/16 01:34:38;;;;;;;9.30;5.88;;;7.10;99.90;;;;;;4158959;28;20504;-84
2020/12/16 01:36:42;;;;;;;9.45;5.82;;;7.00;99.90;;;;;;4146830;28;20037;-84
2020/12/16 01:38:42;;;;;;;9.45;5.82;;;7.10;99.90;;;;;;4143417;28;20088;-84
2020/12/16 01:40:43;;;;;;;10.13;6.05;;;7.00;99.90;;;;;;4137171;28;20071;-84
2020/12/16 01:42:43;;;;;;;6.97;4.82;;;7.10;99.90;;;;;;4147378;28;20386;-83
2020/12/16 01:44:44;;;;;;;9.73;6.13;;;7.20;99.90;;;;;;4142585;28;20532;-84
2020/12/16 01:46:46;;;;;;;7.80;5.55;;;7.20;99.90;;;;;;4147024;28;20030;-84
2020/12/16 01:48:46;;;;;;;9.53;5.00;;;7.20;99.90;;;;;;4163649;28;20037;-84
2020/12/16 01:50:47;;;;;;;9.82;5.38;;;7.20;99.90;;;;;;4126996;28;20030;-84
2020/12/16 01:52:50;;;;;;;13.10;6.55;;;7.30;99.90;;;;;;4146555;28;20050;-84
2020/12/16 01:54:53;;;;;;;9.65;5.07;;;7.30;99.90;;;;;;4134188;28;20037;-84
2020/12/16 01:56:56;;;;;;;8.65;5.25;;;7.30;99.90;;;;;;4154506;28;20076;-84
2020/12/16 01:58:58;;;;;;;10.98;6.18;;;7.30;99.90;;;;;;4159561;28;20088;-84
2020/12/16 02:01:02;;;;;;;9.13;5.60;;;7.30;99.90;;;;;;4160519;28;20037;-85
2020/12/16 02:03:06;;;;;;;10.43;5.50;;;7.30;99.90;;;;;;4132130;28;20042;-85
2020/12/16 02:05:09;;;;;;;9.18;5.68;;;7.30;99.90;;;;;;4154683;28;20540;-85
2020/12/16 02:07:32;;;;;;;11.35;5.78;;;7.40;99.90;;;;;;4137997;28;20042;-85
2020/12/16 02:09:42;;;;;;;8.75;5.80;;;7.30;99.90;;;;;;4123186;28;20038;-85
2020/12/16 02:11:42;;;;;;;8.77;5.55;;;7.40;99.90;;;;;;4130597;28;20538;-85
2020/12/16 02:13:43;;;;;;;9.15;5.72;;;7.40;99.90;;;;;;4143458;28;20030;-85
2020/12/16 02:15:43;;;;;;;8.45;5.05;;;7.40;99.90;;;;;;4141351;28;20030;-85
2020/12/16 02:17:44;;;;;;;11.68;6.72;;;7.40;99.90;;;;;;4151354;28;20501;-85
2020/12/16 02:20:05;;;;;;;10.02;6.60;;;7.40;99.90;;;;;;4126495;28;20027;-85
2020/12/16 02:22:06;;;;;;;8.63;6.13;;;7.40;99.90;;;;;;4152454;28;20533;-85
2020/12/16 02:24:17;;;;;;;9.98;6.10;;;7.40;99.90;;;;;;4126246;28;20479;-85
2020/12/16 02:26:18;;;;;;;10.90;6.97;;;7.40;99.90;;;;;;4137725;28;20084;-85
2020/12/16 02:28:19;;;;;;;9.52;6.30;;;7.40;99.90;;;;;;4162330;28;20484;-85
2020/12/16 02:30:19;;;;;;;8.25;5.60;;;7.40;99.90;;;;;;4153511;28;20038;-85
2020/12/16 02:32:35;;;;;;;8.02;5.72;;;7.40;99.90;;;;;;4155312;28;20037;-84
2020/12/16 02:34:36;;;;;;;9.40;5.80;;;7.40;99.90;;;;;;4157280;28;20041;-84
2020/12/16 02:36:39;;;;;;;9.10;6.22;;;7.40;99.90;;;;;;4145649;28;20076;-84
2020/12/16 02:38:54;;;;;;;11.35;5.75;;;7.40;99.90;;;;;;4145625;28;20088;-85
2020/12/16 02:41:10;;;;;;;10.07;5.70;;;7.40;99.90;;;;;;4147329;28;20035;-85
2020/12/16 02:43:19;;;;;;;8.52;5.60;;;7.40;99.90;;;;;;4159173;28;20033;-85
2020/12/16 02:45:26;;;;;;;8.63;5.55;;;7.40;99.90;;;;;;4140041;28;20394;-85
2020/12/16 02:47:39;;;;;;;9.77;5.85;;;7.40;99.90;;;;;;4161568;28;20124;-85
2020/12/16 02:49:46;;;;;;;8.32;5.70;;;7.30;99.90;;;;;;4159102;28;20033;-85
2020/12/16 02:51:47;;;;;;;10.75;5.35;;;7.40;99.90;;;;;;4130901;28;20529;-85
2020/12/16 02:54:01;;;;;;;8.13;5.57;;;7.30;99.90;;;;;;4144844;28;20033;-84
2020/12/16 02:56:03;;;;;;;11.15;6.20;;;7.30;99.90;;;;;;4118474;28;20403;-84
2020/12/16 02:58:17;;;;;;;8.73;5.82;;;7.30;99.90;;;;;;4159339;28;20064;-84
2020/12/16 03:00:17;;;;;;;9.50;5.57;;;7.30;99.90;;;;;;4151103;28;20038;-84
2020/12/16 03:02:18;;;;;;;10.05;5.70;;;7.30;99.90;;;;;;4133234;28;20034;-84
2020/12/16 03:04:23;;;;;;;9.05;5.53;;;7.30;99.90;;;;;;4128420;28;20031;-84
2020/12/16 03:06:24;;;;;;;8.95;5.30;;;7.30;99.90;;;;;;4149787;28;20147;-84
2020/12/16 03:08:26;;;;;;;11.15;5.57;;;7.30;99.90;;;;;;4153534;28;20045;-84
2020/12/16 03:10:32;;;;;;;7.40;4.70;;;7.30;99.90;;;;;;4131753;28;20118;-84
2020/12/16 03:12:33;;;;;;;6.72;5.00;;;7.30;99.90;;;;;;4152897;28;20390;-84
2020/12/16 03:14:44;;;;;;;6.90;5.38;;;7.20;99.90;;;;;;4161201;28;20087;-84
2020/12/16 03:16:45;;;;;;;7.50;5.20;;;7.20;99.90;;;;;;4127474;28;20109;-85
2020/12/16 03:18:47;;;;;;;8.70;5.35;;;7.20;99.90;;;;;;4129311;28;20045;-85
2020/12/16 03:20:47;;;;;;;8.95;5.50;;;7.20;99.90;;;;;;4148848;28;20041;-85
2020/12/16 03:22:48;;;;;;;8.60;6.22;;;7.10;99.90;;;;;;4132747;28;20133;-85
2020/12/16 03:24:55;;;;;;;9.80;6.68;;;7.10;99.90;;;;;;4144238;28;20529;-85
2020/12/16 03:26:55;;;;;;;10.27;6.60;;;7.10;99.90;;;;;;4138761;28;20116;-85
2020/12/16 03:28:58;;;;;;;9.10;6.13;;;7.10;99.90;;;;;;4131957;28;20752;-85
2020/12/16 03:30:58;;;;;;;8.60;6.03;;;7.10;99.90;;;;;;4141651;28;20029;-85
2020/12/16 03:32:59;;;;;;;9.23;6.35;;;7.10;99.90;;;;;;4138849;28;20207;-85
2020/12/16 03:35:01;;;;;;;7.53;5.53;;;7.10;99.90;;;;;;4127496;28;20534;-85
2020/12/16 03:37:03;;;;;;;8.23;5.82;;;7.10;99.90;;;;;;4150671;28;20033;-85
2020/12/16 03:39:05;;;;;;;10.40;5.93;;;7.10;99.90;;;;;;4161283;28;20026;-85
2020/12/16 03:41:06;;;;;;;8.30;5.47;;;7.10;99.90;;;;;;4143082;28;20363;-85
2020/12/16 03:43:06;;;;;;;8.25;5.53;;;7.10;99.90;;;;;;4170630;28;20048;-85
2020/12/16 03:45:07;;;;;;;7.90;5.13;;;7.00;99.90;;;;;;4159750;28;20026;-85
2020/12/16 03:47:07;;;;;;;7.88;5.25;;;7.00;99.90;;;;;;4153334;28;20429;-85
2020/12/16 03:49:08;;;;;;;7.53;5.07;;;7.00;99.90;;;;;;4162420;28;20044;-85
2020/12/16 03:51:14;;;;;;;7.68;4.75;;;7.00;99.90;;;;;;4135167;28;20050;-85
2020/12/16 03:53:14;;;;;;;7.13;5.13;;;7.00;99.90;;;;;;4132354;28;20402;-85
2020/12/16 03:55:15;;;;;;;7.78;5.35;;;7.00;99.90;;;;;;4126968;28;20027;-85
2020/12/16 03:57:15;;;;;;;7.30;5.25;;;7.00;99.90;;;;;;4134860;28;20029;-85
2020/12/16 03:59:17;;;;;;;8.77;5.75;;;7.00;99.90;;;;;;4138588;28;20029;-85
2020/12/16 04:01:19;;;;;;;7.85;5.80;;;7.00;99.90;;;;;;4144864;28;20109;-85
2020/12/16 04:03:20;;;;;;;6.97;5.28;;;6.90;99.90;;;;;;4136562;28;20073;-85
2020/12/16 04:05:21;;;;;;;9.15;5.43;;;6.90;99.90;;;;;;4160947;28;20029;-85
2020/12/16 04:07:21;;;;;;;7.78;5.60;;;6.90;99.90;;;;;;4154672;28;20030;-85
2020/12/16 04:09:25;;;;;;;8.23;5.93;;;6.90;99.90;;;;;;4168086;28;20049;-85
2020/12/16 04:11:26;;;;;;;8.60;5.93;;;6.90;99.90;;;;;;4134343;28;20088;-85
2020/12/16 04:13:27;;;;;;;7.03;5.78;;;6.90;99.90;;;;;;4130965;28;20461;-85
2020/12/16 04:15:27;;;;;;;8.25;5.78;;;6.90;99.90;;;;;;4136347;28;20054;-85
2020/12/16 04:17:33;;;;;;;7.95;5.85;;;6.90;99.90;;;;;;4127381;28;20026;-85
2020/12/16 04:19:33;;;;;;;6.97;4.65;;;6.90;99.90;;;;;;4132717;28;20671;-85
2020/12/16 04:21:34;;;;;;;7.38;5.28;;;6.90;99.90;;;;;;4140574;28;20113;-85
2020/12/16 04:23:43;;;;;;;8.00;4.93;;;6.90;99.90;;;;;;4141386;28;20037;-85
2020/12/16 04:25:44;;;;;;;8.95;4.80;;;6.80;99.90;;;;;;4151173;28;20097;-85
2020/12/16 04:27:44;;;;;;;6.68;4.78;;;6.80;99.90;;;;;;4157750;28;20112;-85
2020/12/16 04:29:45;;;;;;;7.55;4.50;;;6.80;99.90;;;;;;4163289;28;20032;-85
2020/12/16 04:31:52;;;;;;;5.28;3.78;;;6.70;99.90;;;;;;4165225;28;20091;-85
2020/12/16 04:33:53;;;;;;;4.80;3.75;;;6.70;99.90;;;;;;4152557;28;20037;-84
2020/12/16 04:35:54;;;;;;;5.72;3.80;;;6.70;99.90;;;;;;4150944;22;20041;-72
2020/12/16 04:37:55;;;;;;;5.88;3.78;;;6.70;99.90;;;;;;4153892;28;20033;-72
2020/12/16 04:39:55;;;;;;;6.20;4.13;;;6.70;99.90;;;;;;4161436;28;20120;-72
2020/12/16 04:41:56;;;;;;;5.47;3.33;;;6.70;99.90;;;;;;4167065;28;20090;-71
2020/12/16 04:43:59;;;;;;;5.15;3.47;;;6.70;99.90;;;;;;4168718;28;20523;-72
2020/12/16 04:46:00;;;;;;;5.28;3.60;;;6.60;99.90;;;;;;4142826;28;20116;-72
2020/12/16 04:48:01;;;;;;;6.22;3.50;;;6.60;99.90;;;;;;4144860;28;20414;-71
2020/12/16 04:50:06;;;;;;;5.00;3.47;;;6.60;99.90;;;;;;4155542;28;20038;-71
2020/12/16 04:52:08;;;;;;;6.10;3.88;;;6.60;99.90;;;;;;4150383;28;20044;-72
2020/12/16 04:54:10;;;;;;;7.15;4.00;;;6.60;99.90;;;;;;4167955;28;20064;-71
2020/12/16 04:56:16;;;;;;;9.23;4.53;;;6.60;99.90;;;;;;4160279;28;20033;-71
2020/12/16 04:58:17;;;;;;;8.35;4.85;;;6.60;99.90;;;;;;4161849;28;20120;-71
2020/12/16 05:00:19;;;;;;;7.43;4.53;;;6.50;99.90;;;;;;4170148;28;20048;-72
2020/12/16 05:02:20;;;;;;;8.15;4.85;;;6.50;99.90;;;;;;4159692;28;20041;-72
2020/12/16 05:04:21;;;;;;;9.40;5.43;;;6.50;99.90;;;;;;4170540;28;20044;-71
2020/12/16 05:06:36;;;;;;;9.48;5.13;;;6.50;99.90;;;;;;4160347;28;20390;-72
2020/12/16 05:08:36;;;;;;;8.52;4.90;;;6.50;99.90;;;;;;4164499;28;20041;-71
2020/12/16 05:10:40;;;;;;;9.27;5.00;;;6.50;99.90;;;;;;4161495;28;20044;-72
2020/12/16 05:12:41;;;;;;;7.55;4.03;;;6.40;99.90;;;;;;4160311;28;20048;-71
2020/12/16 05:14:41;;;;;;;8.27;3.90;;;6.40;99.90;;;;;;4173819;28;20025;-72
2020/12/16 05:17:01;;;;;;;6.00;3.75;;;6.30;99.90;;;;;;4169083;28;20040;-72
2020/12/16 05:19:01;;;;;;;6.45;4.30;;;6.30;99.90;;;;;;4150034;28;20038;-72
2020/12/16 05:21:02;;;;;;;6.95;4.55;;;6.30;99.90;;;;;;4163581;28;20055;-71
2020/12/16 05:23:07;;;;;;;6.93;4.47;;;6.30;99.90;;;;;;4166945;28;20462;-71
2020/12/16 05:25:07;;;;;;;7.28;4.63;;;6.20;99.90;;;;;;4170374;28;20056;-71
2020/12/16 05:27:13;;;;;;;8.90;5.00;;;6.30;99.90;;;;;;4170356;28;20048;-72
2020/12/16 05:29:14;;;;;;;10.25;5.50;;;6.30;99.90;;;;;;4146349;28;20201;-72
2020/12/16 05:31:14;;;;;;;10.77;5.60;;;6.30;99.90;;;;;;4126838;28;20057;-72
2020/12/16 05:33:15;;;;;;;9.10;5.43;;;6.30;99.90;;;;;;4130240;28;20030;-72
2020/12/16 05:35:22;;;;;;;8.77;4.97;;;6.30;99.90;;;;;;4149535;28;20643;-72
2020/12/16 05:37:35;;;;;;;7.80;4.55;;;6.30;99.90;;;;;;4145522;28;20117;-72
2020/12/16 05:39:36;;;;;;;5.65;3.75;;;6.30;99.90;;;;;;4153226;28;20121;-72
2020/12/16 05:41:36;;;;;;;6.10;4.18;;;6.30;99.90;;;;;;4160826;28;20037;-72
2020/12/16 05:43:37;;;;;;;7.75;4.68;;;6.20;99.90;;;;;;4170864;22;22372;-83
2020/12/16 05:45:48;;;;;;;10.35;5.43;;;6.30;99.90;;;;;;4151890;28;20064;-83
2020/12/16 05:48:03;;;;;;;7.68;4.85;;;6.20;99.90;;;;;;4174092;28;20038;-83
2020/12/16 05:50:19;;;;;;;7.78;5.13;;;6.20;99.90;;;;;;4180859;28;20041;-83
2020/12/16 05:52:20;;;;;;;6.72;4.63;;;6.20;99.90;;;;;;4163600;28;20033;-83
2020/12/16 05:54:36;;;;;;;7.15;4.90;;;6.20;99.90;;;;;;4179311;28;20059;-83
2020/12/16 05:56:36;;;;;;;8.90;5.30;;;6.20;99.90;;;;;;4179684;28;20025;-83
2020/12/16 05:58:37;;;;;;;7.88;4.40;;;6.20;99.90;;;;;;4160227;28;20546;-83
2020/12/16 06:00:58;;;;;;;7.90;4.10;;;6.20;99.90;;;;;;4179193;28;20036;-83
2020/12/16 06:03:00;;;;;;;8.88;5.10;;;6.20;99.90;;;;;;4179331;28;20483;-83
2020/12/16 06:05:04;;;;;;;11.07;5.03;;;6.20;99.90;;;;;;4160376;28;20030;-83
2020/12/16 06:07:07;;;;;;;7.65;3.97;;;6.10;99.90;;;;;;4178897;28;20037;-84
2020/12/16 06:09:15;;;;;;;5.65;3.53;;;6.10;99.90;;;;;;4154059;28;20029;-83
2020/12/16 06:11:16;;;;;;;5.40;3.38;;;6.10;99.90;;;;;;4162651;28;20107;-83
2020/12/16 06:13:18;;;;;;;4.60;3.40;;;6.00;99.90;;;;;;4179383;28;20029;-83
2020/12/16 06:15:21;;;;;;;4.22;3.30;;;6.10;99.90;;;;;;4171394;28;20041;-83
2020/12/16 06:17:23;;;;;;;5.38;3.38;;;6.00;99.90;;;;;;4178462;28;20021;-83
2020/12/16 06:19:33;;;;;;;5.10;3.78;;;6.00;99.90;;;;;;4162408;28;20021;-84
2020/12/16 06:21:49;;;;;;;6.95;4.00;;;6.00;99.90;;;;;;4178401;28;20029;-83
2020/12/16 06:24:08;;;;;;;6.40;4.00;;;6.00;99.90;;;;;;4146186;28;20068;-83
2020/12/16 06:26:17;;;;;;;8.40;3.90;;;6.00;99.90;;;;;;4164377;28;20935;-83
2020/12/16 06:28:28;;;;;;;6.40;3.58;;;6.00;99.90;;;;;;4179622;28;20041;-84
2020/12/16 06:30:30;;;;;;;5.78;3.75;;;6.00;99.90;;;;;;4176557;28;20052;-83
2020/12/16 06:32:41;;;;;;;7.18;4.05;;;6.00;99.90;;;;;;4161495;28;21341;-83
2020/12/16 06:34:57;;;;;;;6.00;4.05;;;5.90;99.90;;;;;;4196928;28;20044;-83
2020/12/16 06:36:58;;;;;;;8.32;4.35;;;5.90;99.90;;;;;;4179357;28;20053;-85
2020/12/16 06:39:16;;;;;;;6.28;3.90;;;5.90;99.90;;;;;;4120585;28;24754;-84
2020/12/16 06:41:24;;;;;;;6.22;3.72;;;5.90;99.90;;;;;;4142578;28;20603;-84
2020/12/16 06:43:31;;;;;;;5.95;3.90;;;5.90;99.90;;;;;;4145329;28;20029;-84
2020/12/16 06:45:40;;;;;;;5.60;3.65;;;5.90;99.90;;;;;;4162596;28;20050;-83
2020/12/16 06:47:42;;;;;;;7.90;3.90;;;5.90;99.90;;;;;;4162244;28;20033;-83
2020/12/16 06:49:43;;;;;;;5.90;4.00;;;5.90;99.90;;;;;;4146546;28;20026;-84
2020/12/16 06:52:04;;;;;;;7.75;5.13;;;5.90;99.90;;;;;;4162665;28;20575;-84
2020/12/16 06:54:12;;;;;;;9.30;5.50;;;5.90;99.90;;;;;;4162314;28;20052;-84
2020/12/16 06:56:20;;;;;;;9.38;5.50;;;5.80;99.90;;;;;;4161542;28;20060;-84
2020/12/16 06:58:41;;;;;;;8.88;5.00;;;5.80;99.90;;;;;;4157125;28;20057;-84
2020/12/16 07:00:42;;;;;;;9.55;5.15;;;5.80;99.90;;;;;;4161902;28;20030;-84
2020/12/16 07:02:42;;;;;;;8.60;5.38;;;5.90;99.90;;;;;;4146240;28;20041;-84
2020/12/16 07:04:43;;;;;;;13.48;6.00;;;5.80;99.90;;;;;;4161957;28;20030;-84
2020/12/16 07:06:44;;;;;;;11.68;5.93;;;5.80;99.90;;;;;;4161799;28;20037;-84
2020/12/16 07:08:44;;;;;;;10.60;5.15;;;5.80;99.90;;;;;;4163069;28;20729;-84
2020/12/16 07:10:47;;;;;;;11.50;5.70;;;5.80;99.90;;;;;;4146980;28;20523;-85
2020/12/16 07:12:47;;;;;;;;;;;5.80;99.90;;;;;;4165280;28;20488;-84
2020/12/16 07:14:48;;;;;;;18.88;7.93;;;5.70;99.90;;;;;;4146073;28;19909;-84
2020/12/16 07:16:49;;;;;;;17.42;7.45;;;5.70;99.90;;;;;;4163490;28;20029;-85
2020/12/16 07:18:56;;;;;;;17.73;7.22;;;5.70;99.90;;;;;;4130803;28;20310;-85
2020/12/16 07:21:09;;;;;;;17.27;7.78;;;5.70;99.90;;;;;;4163897;28;20037;-84
2020/12/16 07:23:43;;;;;;;13.43;6.22;;;5.70;99.90;;;;;;4162661;28;20088;-84
2020/12/16 07:25:47;;;;;;;15.63;7.10;;;5.70;99.90;;;;;;4159142;28;20176;-84
2020/12/16 07:27:50;;;;;;;13.38;5.72;;;5.60;99.90;;;;;;4162272;28;20040;-84
2020/12/16 07:29:59;;;;;;;11.30;5.43;;;5.60;99.90;;;;;;4161346;28;20465;-84
2020/12/16 07:32:04;;;;;;;11.75;6.13;;;5.60;99.90;;;;;;4145751;28;20041;-84
2020/12/16 07:34:04;;;;;;;10.75;5.72;;;5.60;99.90;;;;;;4139375;28;20096;-84
2020/12/16 07:36:08;;;;;;;11.98;5.75;;;5.60;99.90;;;;;;4160105;28;20029;-84
2020/12/16 07:38:11;;;;;;;15.07;6.68;;;5.60;99.90;;;;;;4163263;28;20029;-83
2020/12/16 07:40:14;;;;;;;10.07;5.47;;;5.60;99.90;;;;;;4147727;28;20030;-85
2020/12/16 07:42:34;;;;;;;13.85;6.35;;;5.60;99.90;;;;;;4179442;28;20455;-84
2020/12/16 07:44:34;;;;;;;12.55;6.18;;;5.60;99.90;;;;;;4162617;28;20210;-84
2020/12/16 07:46:35;;;;;;;14.63;6.65;;;5.60;99.90;;;;;;4158379;28;20088;-85
2020/12/16 07:48:37;;;;;;;13.00;6.45;;;5.70;99.90;;;;;;4163488;28;20041;-84
2020/12/16 07:50:40;;;;;;;12.95;6.25;;;5.70;99.90;;;;;;4145662;28;20033;-84
2020/12/16 07:52:41;;;;;;;15.15;6.35;;;5.70;99.90;;;;;;4145735;28;20030;-84
2020/12/16 07:54:41;;;;;;;13.45;6.43;;;5.70;99.90;;;;;;4146250;28;20123;-84
2020/12/16 07:56:48;;;;;;;11.25;5.68;;;5.80;99.90;;;;;;4143683;28;20024;-84
2020/12/16 07:58:55;;;;;;;12.70;6.72;;;5.80;99.90;;;;;;4165180;28;20032;-84
2020/12/16 08:01:14;;;;;;;11.82;6.35;;;5.80;99.90;;;;;;4148872;28;20751;-83
2020/12/16 08:03:35;;;;;;;12.52;6.03;;;5.90;99.90;;;;;;4164993;28;20507;-83
2020/12/16 08:05:36;;;;;;;9.63;5.28;;;5.90;99.90;;;;;;4149887;28;20117;-84
2020/12/16 08:07:38;;;;;;;11.98;6.70;;;5.90;99.90;;;;;;4171999;28;20073;-84
2020/12/16 08:09:49;;;;;;;;;;;5.90;99.90;;;;;;4149465;28;20707;-83
2020/12/16 08:11:49;;;;;;;11.65;6.05;;;6.00;99.90;;;;;;4158574;28;19936;-83
2020/12/16 08:13:51;;;;;;;12.05;6.00;;;5.90;99.90;;;;;;4165561;28;20060;-83
2020/12/16 08:15:52;;;;;;;9.32;5.28;;;6.00;99.90;;;;;;4165243;28;20036;-83
2020/12/16 08:17:52;;;;;;;11.95;6.00;;;6.00;99.90;;;;;;4148168;28;20034;-84
2020/12/16 08:20:15;;;;;;;10.60;6.25;;;6.00;99.90;;;;;;4164590;28;20041;-83
2020/12/16 08:22:16;;;;;;;11.15;6.18;;;6.20;99.90;;;;;;4149037;28;20116;-83
2020/12/16 08:24:17;;;;;;;13.05;7.20;;;6.20;99.90;;;;;;4148390;28;20038;-83
2020/12/16 08:26:19;;;;;;;17.13;8.18;;;6.30;99.90;;;;;;4158483;28;20061;-83
2020/12/16 08:28:34;;;;;;;13.88;8.85;;;6.40;99.90;;;;;;4150402;28;22231;-83
2020/12/16 08:30:38;;;;;;;12.65;8.30;;;6.50;99.90;;;;;;4148193;28;20500;-83
2020/12/16 08:33:08;;;;;;;14.18;8.23;;;6.50;99.90;;;;;;4165376;28;20721;-83
2020/12/16 08:35:21;;;;;;;17.23;9.98;;;6.60;99.90;;;;;;4163623;28;20686;-83
2020/12/16 08:37:43;;;;;;;14.52;8.68;;;6.70;99.90;;;;;;4161089;28;20431;-83
2020/12/16 08:39:44;;;;;;;12.68;8.57;;;6.70;99.90;;;;;;4159397;28;20124;-83
2020/12/16 08:41:46;;;;;;;16.02;9.20;;;6.80;99.90;;;;;;4147271;28;20054;-83
2020/12/16 08:43:47;;;;;;;11.27;7.57;;;6.90;99.90;;;;;;4148354;28;20710;-83
2020/12/16 08:46:06;;;;;;;14.13;8.43;;;6.90;99.90;;;;;;4165121;28;20053;-83
2020/12/16 08:48:07;;;;;;;17.65;9.45;;;7.00;99.90;;;;;;4145850;28;20037;-83
2020/12/16 08:50:17;;;;;;;15.63;8.57;;;7.00;99.90;;;;;;4163604;28;20030;-83
2020/12/16 08:52:43;;;;;;;13.82;8.55;;;7.10;99.90;;;;;;4156546;28;20045;-83
2020/12/16 08:55:13;;;;;;;11.88;8.45;;;7.10;99.90;;;;;;4148201;28;20033;-82
2020/12/16 08:57:18;;;;;;;11.98;7.53;;;7.20;99.90;;;;;;4164515;28;20548;-83
2020/12/16 08:59:21;;;;;;;16.30;9.82;;;7.30;99.90;;;;;;4165790;28;20057;-82
2020/12/16 09:01:23;;;;;;;17.73;9.55;;;7.30;99.90;;;;;;4162422;28;20042;-82
2020/12/16 09:03:24;;;;;;;15.20;9.32;;;7.30;99.90;;;;;;4146544;28;20045;-83
2020/12/16 09:05:31;;;;;;;11.15;8.27;;;7.30;99.90;;;;;;4146834;28;20038;-83
2020/12/16 09:07:31;;;;;;;12.57;9.02;;;7.40;99.90;;;;;;4163829;28;20408;-82
2020/12/16 09:09:39;;;;;;;13.90;8.65;;;7.50;99.90;;;;;;4157624;28;20025;-82
2020/12/16 09:11:55;;;;;;;15.95;9.98;;;7.50;99.90;;;;;;4162318;28;20082;-82
2020/12/16 09:14:00;;;;;;;13.95;9.35;;;7.50;99.90;;;;;;4161351;28;20500;-82
2020/12/16 09:16:04;;;;;;;15.80;9.65;;;7.60;99.90;;;;;;4162960;28;20416;-82
2020/12/16 09:18:24;;;;;;;;;;;7.60;99.90;;;;;;4146657;28;20045;-82
2020/12/16 09:20:24;;;;;;;15.65;10.02;;;7.60;99.90;;;;;;4173443;28;20377;-82
2020/12/16 09:22:27;;;;;;;13.02;9.25;;;7.70;99.90;;;;;;4147772;28;20098;-82
2020/12/16 09:24:32;;;;;;;13.90;9.05;;;7.70;99.90;;;;;;4165076;28;20049;-82
2020/12/16 09:26:51;;;;;;;13.57;9.55;;;7.80;99.90;;;;;;4146493;28;20110;-82
2020/12/16 09:28:52;;;;;;;13.90;9.50;;;7.80;99.90;;;;;;4159803;28;20509;-82
2020/12/16 09:30:52;;;;;;;13.70;9.57;;;7.80;99.90;;;;;;4146714;28;20030;-82
2020/12/16 09:32:53;;;;;;;13.73;9.05;;;7.90;99.90;;;;;;4164492;28;20192;-82
2020/12/16 09:34:55;;;;;;;15.73;10.20;;;7.90;99.90;;;;;;4161410;28;20052;-82
2020/12/16 09:37:09;;;;;;;15.98;9.85;;;7.90;99.90;;;;;;4163315;28;20025;-82
2020/12/16 09:39:11;;;;;;;13.82;9.98;;;8.00;99.90;;;;;;4162437;28;20045;-82
2020/12/16 09:41:11;;;;;;;13.85;9.35;;;8.00;99.90;;;;;;4162856;28;20511;-83
2020/12/16 09:43:41;;;;;;;13.73;9.27;;;8.10;99.90;;;;;;4163245;28;20029;-83
2020/12/16 09:45:43;;;;;;;14.60;9.98;;;8.20;99.90;;;;;;4161168;28;20681;-82
2020/12/16 09:47:49;;;;;;;14.45;10.07;;;8.20;99.90;;;;;;4146036;28;20408;-83
2020/12/16 09:50:04;;;;;;;15.27;10.35;;;8.30;99.90;;;;;;4162162;28;20029;-82
2020/12/16 09:52:32;;;;;;;15.05;9.90;;;8.40;99.90;;;;;;4162098;28;20049;-82
2020/12/16 09:54:34;;;;;;;13.23;9.52;;;8.50;99.90;;;;;;4158183;28;20030;-82
2020/12/16 09:56:35;;;;;;;14.93;9.63;;;8.50;99.90;;;;;;4146603;28;20080;-82
2020/12/16 09:58:39;;;;;;;15.07;9.55;;;8.60;99.90;;;;;;4164109;28;20033;-83
2020/12/16 10:00:47;;;;;;;14.77;9.80;;;8.60;99.90;;;;;;4162396;28;20393;-83
2020/12/16 10:03:00;;;;;;;12.63;8.85;;;8.70;99.90;;;;;;4143939;28;20038;-83
2020/12/16 10:05:01;;;;;;;14.60;10.00;;;8.70;99.90;;;;;;4162168;28;20065;-82
2020/12/16 10:07:01;;;;;;;15.68;10.43;;;8.80;99.90;;;;;;4161731;28;20174;-82
2020/12/16 10:09:17;;;;;;;16.15;11.80;;;8.80;99.90;;;;;;4147588;28;20057;-82
2020/12/16 10:11:17;;;;;;;18.48;11.82;;;8.80;99.90;;;;;;4161752;28;20091;-82
2020/12/16 10:13:21;;;;;;;18.27;10.77;;;8.90;99.90;;;;;;4146009;28;20056;-82
2020/12/16 10:15:23;;;;;;;16.35;10.52;;;8.90;99.90;;;;;;4162559;28;20037;-82
2020/12/16 10:17:46;;;;;;;14.60;9.77;;;8.90;99.90;;;;;;4157764;28;20484;-82
2020/12/16 10:19:48;;;;;;;13.73;9.40;;;8.90;99.90;;;;;;4151046;28;20034;-83
2020/12/16 10:21:51;;;;;;;13.90;9.60;;;8.90;99.90;;;;;;4145926;28;20188;-82
2020/12/16 10:23:59;;;;;;;17.17;10.10;;;9.00;99.90;;;;;;4162104;28;20265;-82
2020/12/16 10:26:00;;;;;;;12.25;8.48;;;9.00;99.90;;;;;;4162372;28;20033;-83
2020/12/16 10:28:02;;;;;;;13.07;8.98;;;9.10;99.90;;;;;;4162891;28;20033;-82
2020/12/16 10:30:05;;;;;;;11.10;8.03;;;9.10;99.90;;;;;;4162674;28;20029;-82
2020/12/16 10:32:11;;;;;;;;;;;9.10;99.90;;;;;;4162143;28;20068;-82
2020/12/16 10:34:26;;;;;;;14.05;9.73;;;9.20;99.90;;;;;;4163378;28;19916;-82
2020/12/16 10:36:30;;;;;;;11.98;8.07;;;9.20;99.90;;;;;;4145944;28;20032;-83
2020/12/16 10:38:32;;;;;;;15.85;10.20;;;9.20;99.90;;;;;;4161319;28;20034;-82
2020/12/16 10:40:34;;;;;;;13.10;8.52;;;9.30;99.90;;;;;;4165095;28;20481;-82
2020/12/16 10:42:41;;;;;;;14.57;9.85;;;9.30;99.90;;;;;;4162676;28;20160;-82
2020/12/16 10:44:42;;;;;;;12.95;8.50;;;9.30;99.90;;;;;;4160300;28;20045;-82
2020/12/16 10:46:48;;;;;;;19.98;11.75;;;9.40;99.90;;;;;;4151511;28;20452;-82
2020/12/16 10:48:50;;;;;;;15.57;9.68;;;9.50;99.90;;;;;;4168248;28;20033;-82
2020/12/16 10:50:52;;;;;;;15.85;9.65;;;9.50;99.90;;;;;;4162930;28;20096;-82
2020/12/16 10:52:53;;;;;;;15.00;9.27;;;9.60;99.90;;;;;;4163250;28;20030;-82
2020/12/16 10:55:03;;;;;;;15.40;9.80;;;9.60;99.90;;;;;;4161939;28;20037;-82